sensor_id;sensor_type;location;lat;lon;timestamp;P1;durP1;ratioP1;P2;durP2;ratioP2
42096;SDS011;27754;45.414;11.084;2022-12-18T00:02:15;11.55;;;8.50;;
42096;SDS011;27754;45.414;11.084;2022-12-18T00:04:42;10.77;;;7.85;;
42096;SDS011;27754;45.414;11.084;2022-12-18T00:07:09;11.70;;;8.15;;
42096;SDS011;27754;45.414;11.084;2022-12-18T00:09:37;11.15;;;8.27;;
42096;SDS011;27754;45.414;11.084;2022-12-18T00:12:06;11.55;;;8.55;;
42096;SDS011;27754;45.414;11.084;2022-12-18T00:14:43;10.90;;;7.60;;
42096;SDS011;27754;45.414;11.084;2022-12-18T00:17:11;12.18;;;9.00;;
42096;SDS011;27754;45.414;11.084;2022-12-18T00:19:38;15.38;;;10.48;;
42096;SDS011;27754;45.414;11.084;2022-12-18T00:22:05;11.82;;;9.57;;
42096;SDS011;27754;45.414;11.084;2022-12-18T00:24:32;10.60;;;8.27;;
42096;SDS011;27754;45.414;11.084;2022-12-18T00:26:59;10.05;;;7.90;;
42096;SDS011;27754;45.414;11.084;2022-12-18T00:29:26;10.98;;;8.57;;
42096;SDS011;27754;45.414;11.084;2022-12-18T00:31:53;12.50;;;9.48;;
42096;SDS011;27754;45.414;11.084;2022-12-18T00:34:20;12.27;;;10.07;;
42096;SDS011;27754;45.414;11.084;2022-12-18T00:36:48;11.68;;;9.07;;
42096;SDS011;27754;45.414;11.084;2022-12-18T00:39:15;14.05;;;10.38;;
42096;SDS011;27754;45.414;11.084;2022-12-18T00:41:43;15.65;;;11.75;;
42096;SDS011;27754;45.414;11.084;2022-12-18T00:44:30;14.38;;;10.63;;
42096;SDS011;27754;45.414;11.084;2022-12-18T00:46:57;14.93;;;10.93;;
42096;SDS011;27754;45.414;11.084;2022-12-18T00:49:24;13.82;;;10.57;;
42096;SDS011;27754;45.414;11.084;2022-12-18T00:51:51;15.05;;;11.30;;
42096;SDS011;27754;45.414;11.084;2022-12-18T00:54:20;19.00;;;11.55;;
42096;SDS011;27754;45.414;11.084;2022-12-18T00:56:48;13.02;;;9.73;;
42096;SDS011;27754;45.414;11.084;2022-12-18T00:59:16;13.80;;;10.35;;
42096;SDS011;27754;45.414;11.084;2022-12-18T01:01:44;15.73;;;10.00;;
42096;SDS011;27754;45.414;11.084;2022-12-18T01:04:11;13.23;;;9.75;;
42096;SDS011;27754;45.414;11.084;2022-12-18T01:06:38;16.77;;;10.30;;
42096;SDS011;27754;45.414;11.084;2022-12-18T01:09:06;12.55;;;9.55;;
42096;SDS011;27754;45.414;11.084;2022-12-18T01:11:35;13.80;;;8.95;;
42096;SDS011;27754;45.414;11.084;2022-12-18T01:14:03;10.93;;;8.23;;
42096;SDS011;27754;45.414;11.084;2022-12-18T01:19:15;11.25;;;8.73;;
42096;SDS011;27754;45.414;11.084;2022-12-18T01:21:42;11.63;;;8.07;;
42096;SDS011;27754;45.414;11.084;2022-12-18T01:24:10;13.65;;;7.85;;
42096;SDS011;27754;45.414;11.084;2022-12-18T01:26:38;14.68;;;8.52;;
42096;SDS011;27754;45.414;11.084;2022-12-18T01:29:05;14.35;;;8.85;;
42096;SDS011;27754;45.414;11.084;2022-12-18T01:31:33;11.02;;;8.43;;
42096;SDS011;27754;45.414;11.084;2022-12-18T01:34:01;13.77;;;9.27;;
42096;SDS011;27754;45.414;11.084;2022-12-18T01:36:34;15.38;;;9.52;;
42096;SDS011;27754;45.414;11.084;2022-12-18T01:39:10;10.88;;;8.25;;
42096;SDS011;27754;45.414;11.084;2022-12-18T01:41:40;9.70;;;7.95;;
42096;SDS011;27754;45.414;11.084;2022-12-18T01:47:45;9.15;;;7.32;;
42096;SDS011;27754;45.414;11.084;2022-12-18T01:50:17;11.85;;;7.15;;
42096;SDS011;27754;45.414;11.084;2022-12-18T01:55:45;11.93;;;7.70;;
42096;SDS011;27754;45.414;11.084;2022-12-18T01:58:14;12.45;;;8.18;;
42096;SDS011;27754;45.414;11.084;2022-12-18T02:00:42;11.68;;;8.13;;
42096;SDS011;27754;45.414;11.084;2022-12-18T02:03:10;10.43;;;7.75;;
42096;SDS011;27754;45.414;11.084;2022-12-18T02:05:48;10.82;;;7.55;;
42096;SDS011;27754;45.414;11.084;2022-12-18T02:14:26;10.77;;;7.68;;
42096;SDS011;27754;45.414;11.084;2022-12-18T02:18:54;11.65;;;8.30;;
42096;SDS011;27754;45.414;11.084;2022-12-18T02:21:31;15.88;;;8.05;;
42096;SDS011;27754;45.414;11.084;2022-12-18T02:24:35;10.82;;;8.32;;
42096;SDS011;27754;45.414;11.084;2022-12-18T02:27:17;12.38;;;9.13;;
42096;SDS011;27754;45.414;11.084;2022-12-18T02:29:51;12.85;;;8.57;;
42096;SDS011;27754;45.414;11.084;2022-12-18T02:32:25;10.85;;;8.30;;
42096;SDS011;27754;45.414;11.084;2022-12-18T02:34:55;13.30;;;8.52;;
42096;SDS011;27754;45.414;11.084;2022-12-18T02:37:26;14.48;;;8.93;;
42096;SDS011;27754;45.414;11.084;2022-12-18T02:39:55;11.98;;;8.95;;
42096;SDS011;27754;45.414;11.084;2022-12-18T02:42:24;11.43;;;8.35;;
42096;SDS011;27754;45.414;11.084;2022-12-18T02:44:54;12.02;;;8.57;;
42096;SDS011;27754;45.414;11.084;2022-12-18T02:47:24;11.30;;;8.32;;
42096;SDS011;27754;45.414;11.084;2022-12-18T02:52:31;12.93;;;9.25;;
42096;SDS011;27754;45.414;11.084;2022-12-18T02:58:16;10.50;;;8.65;;
42096;SDS011;27754;45.414;11.084;2022-12-18T03:03:24;12.40;;;8.80;;
42096;SDS011;27754;45.414;11.084;2022-12-18T03:06:21;11.90;;;8.40;;
42096;SDS011;27754;45.414;11.084;2022-12-18T03:08:59;14.73;;;8.80;;
42096;SDS011;27754;45.414;11.084;2022-12-18T03:11:31;12.45;;;8.40;;
42096;SDS011;27754;45.414;11.084;2022-12-18T03:14:20;13.38;;;9.50;;
42096;SDS011;27754;45.414;11.084;2022-12-18T03:16:50;11.60;;;9.25;;
42096;SDS011;27754;45.414;11.084;2022-12-18T03:19:21;12.23;;;8.98;;
42096;SDS011;27754;45.414;11.084;2022-12-18T03:21:57;12.60;;;9.00;;
42096;SDS011;27754;45.414;11.084;2022-12-18T03:24:32;12.05;;;9.23;;
42096;SDS011;27754;45.414;11.084;2022-12-18T03:27:04;14.27;;;10.60;;
42096;SDS011;27754;45.414;11.084;2022-12-18T03:29:38;12.55;;;9.68;;
42096;SDS011;27754;45.414;11.084;2022-12-18T03:32:29;13.43;;;9.95;;
42096;SDS011;27754;45.414;11.084;2022-12-18T03:35:01;14.48;;;10.05;;
42096;SDS011;27754;45.414;11.084;2022-12-18T03:37:36;14.07;;;10.05;;
42096;SDS011;27754;45.414;11.084;2022-12-18T03:40:06;17.02;;;10.88;;
42096;SDS011;27754;45.414;11.084;2022-12-18T03:48:10;16.20;;;11.77;;
42096;SDS011;27754;45.414;11.084;2022-12-18T03:51:01;15.35;;;11.05;;
42096;SDS011;27754;45.414;11.084;2022-12-18T03:53:40;16.80;;;11.55;;
42096;SDS011;27754;45.414;11.084;2022-12-18T03:56:18;14.73;;;10.77;;
42096;SDS011;27754;45.414;11.084;2022-12-18T03:58:49;15.25;;;10.80;;
42096;SDS011;27754;45.414;11.084;2022-12-18T04:01:23;14.18;;;10.65;;
42096;SDS011;27754;45.414;11.084;2022-12-18T04:03:55;17.02;;;11.05;;
42096;SDS011;27754;45.414;11.084;2022-12-18T04:06:25;14.68;;;10.43;;
42096;SDS011;27754;45.414;11.084;2022-12-18T04:08:54;16.30;;;11.02;;
42096;SDS011;27754;45.414;11.084;2022-12-18T04:11:24;15.18;;;12.48;;
42096;SDS011;27754;45.414;11.084;2022-12-18T04:13:55;18.73;;;10.68;;
42096;SDS011;27754;45.414;11.084;2022-12-18T04:16:31;18.25;;;11.55;;
42096;SDS011;27754;45.414;11.084;2022-12-18T04:19:01;15.10;;;11.18;;
42096;SDS011;27754;45.414;11.084;2022-12-18T04:21:34;17.77;;;11.40;;
42096;SDS011;27754;45.414;11.084;2022-12-18T04:24:00;16.67;;;11.65;;
42096;SDS011;27754;45.414;11.084;2022-12-18T04:26:29;25.83;;;14.25;;
42096;SDS011;27754;45.414;11.084;2022-12-18T04:29:16;17.42;;;12.98;;
42096;SDS011;27754;45.414;11.084;2022-12-18T04:31:43;17.73;;;11.98;;
42096;SDS011;27754;45.414;11.084;2022-12-18T04:34:10;14.88;;;11.45;;
42096;SDS011;27754;45.414;11.084;2022-12-18T04:36:44;16.40;;;11.98;;
42096;SDS011;27754;45.414;11.084;2022-12-18T04:39:12;20.38;;;11.98;;
42096;SDS011;27754;45.414;11.084;2022-12-18T04:41:40;16.85;;;11.98;;
42096;SDS011;27754;45.414;11.084;2022-12-18T04:44:08;16.35;;;11.70;;
42096;SDS011;27754;45.414;11.084;2022-12-18T04:46:35;17.08;;;12.00;;
42096;SDS011;27754;45.414;11.084;2022-12-18T04:49:02;17.48;;;11.98;;
42096;SDS011;27754;45.414;11.084;2022-12-18T04:51:29;19.40;;;12.68;;
42096;SDS011;27754;45.414;11.084;2022-12-18T04:53:56;18.10;;;13.05;;
42096;SDS011;27754;45.414;11.084;2022-12-18T04:56:23;20.13;;;12.32;;
42096;SDS011;27754;45.414;11.084;2022-12-18T04:58:50;22.33;;;14.00;;
42096;SDS011;27754;45.414;11.084;2022-12-18T05:01:17;20.10;;;14.32;;
42096;SDS011;27754;45.414;11.084;2022-12-18T05:03:44;21.42;;;12.90;;
42096;SDS011;27754;45.414;11.084;2022-12-18T05:06:11;19.23;;;12.50;;
42096;SDS011;27754;45.414;11.084;2022-12-18T05:08:38;15.45;;;11.90;;
42096;SDS011;27754;45.414;11.084;2022-12-18T05:11:08;16.27;;;11.80;;
42096;SDS011;27754;45.414;11.084;2022-12-18T05:13:36;16.95;;;11.90;;
42096;SDS011;27754;45.414;11.084;2022-12-18T05:16:05;15.43;;;10.07;;
42096;SDS011;27754;45.414;11.084;2022-12-18T05:18:32;17.30;;;10.18;;
42096;SDS011;27754;45.414;11.084;2022-12-18T05:21:00;12.20;;;8.65;;
42096;SDS011;27754;45.414;11.084;2022-12-18T05:23:27;11.50;;;8.60;;
42096;SDS011;27754;45.414;11.084;2022-12-18T05:25:58;14.07;;;9.57;;
42096;SDS011;27754;45.414;11.084;2022-12-18T05:28:26;15.88;;;10.32;;
42096;SDS011;27754;45.414;11.084;2022-12-18T05:30:56;16.35;;;10.23;;
42096;SDS011;27754;45.414;11.084;2022-12-18T05:33:26;14.48;;;10.60;;
42096;SDS011;27754;45.414;11.084;2022-12-18T05:35:58;13.15;;;10.13;;
42096;SDS011;27754;45.414;11.084;2022-12-18T05:38:27;9.75;;;8.05;;
42096;SDS011;27754;45.414;11.084;2022-12-18T05:40:54;8.07;;;7.13;;
42096;SDS011;27754;45.414;11.084;2022-12-18T05:43:22;11.05;;;8.23;;
42096;SDS011;27754;45.414;11.084;2022-12-18T05:45:51;9.25;;;7.63;;
42096;SDS011;27754;45.414;11.084;2022-12-18T05:48:19;9.00;;;7.60;;
42096;SDS011;27754;45.414;11.084;2022-12-18T05:50:48;9.25;;;6.88;;
42096;SDS011;27754;45.414;11.084;2022-12-18T05:53:16;10.73;;;7.80;;
42096;SDS011;27754;45.414;11.084;2022-12-18T05:55:46;9.07;;;7.57;;
42096;SDS011;27754;45.414;11.084;2022-12-18T05:58:14;9.38;;;7.43;;
42096;SDS011;27754;45.414;11.084;2022-12-18T06:00:44;9.00;;;6.85;;
42096;SDS011;27754;45.414;11.084;2022-12-18T06:03:12;11.40;;;7.72;;
42096;SDS011;27754;45.414;11.084;2022-12-18T06:05:41;9.23;;;6.57;;
42096;SDS011;27754;45.414;11.084;2022-12-18T06:08:10;9.15;;;7.60;;
42096;SDS011;27754;45.414;11.084;2022-12-18T06:10:38;9.45;;;8.18;;
42096;SDS011;27754;45.414;11.084;2022-12-18T06:13:06;13.07;;;8.18;;
42096;SDS011;27754;45.414;11.084;2022-12-18T06:15:35;9.70;;;7.75;;
42096;SDS011;27754;45.414;11.084;2022-12-18T06:18:03;9.65;;;7.90;;
42096;SDS011;27754;45.414;11.084;2022-12-18T06:20:29;10.35;;;8.32;;
42096;SDS011;27754;45.414;11.084;2022-12-18T06:22:59;9.52;;;7.28;;
42096;SDS011;27754;45.414;11.084;2022-12-18T06:25:26;9.93;;;7.47;;
42096;SDS011;27754;45.414;11.084;2022-12-18T06:27:53;10.07;;;8.15;;
42096;SDS011;27754;45.414;11.084;2022-12-18T06:30:20;12.50;;;8.40;;
42096;SDS011;27754;45.414;11.084;2022-12-18T06:32:50;11.25;;;8.60;;
42096;SDS011;27754;45.414;11.084;2022-12-18T06:35:22;13.45;;;9.52;;
42096;SDS011;27754;45.414;11.084;2022-12-18T06:37:49;10.25;;;8.77;;
42096;SDS011;27754;45.414;11.084;2022-12-18T06:40:17;11.98;;;9.18;;
42096;SDS011;27754;45.414;11.084;2022-12-18T06:42:44;13.35;;;9.25;;
42096;SDS011;27754;45.414;11.084;2022-12-18T06:45:11;12.57;;;10.13;;
42096;SDS011;27754;45.414;11.084;2022-12-18T06:47:41;12.05;;;8.57;;
42096;SDS011;27754;45.414;11.084;2022-12-18T06:50:08;12.95;;;9.48;;
42096;SDS011;27754;45.414;11.084;2022-12-18T06:52:35;12.23;;;9.75;;
42096;SDS011;27754;45.414;11.084;2022-12-18T06:55:03;15.45;;;11.23;;
42096;SDS011;27754;45.414;11.084;2022-12-18T06:57:30;13.43;;;10.25;;
42096;SDS011;27754;45.414;11.084;2022-12-18T06:59:57;14.57;;;10.43;;
42096;SDS011;27754;45.414;11.084;2022-12-18T07:02:24;16.05;;;11.50;;
42096;SDS011;27754;45.414;11.084;2022-12-18T07:04:51;15.55;;;12.00;;
42096;SDS011;27754;45.414;11.084;2022-12-18T07:07:18;17.05;;;12.07;;
42096;SDS011;27754;45.414;11.084;2022-12-18T07:09:45;13.95;;;11.48;;
42096;SDS011;27754;45.414;11.084;2022-12-18T07:12:11;28.38;;;12.68;;
42096;SDS011;27754;45.414;11.084;2022-12-18T07:14:38;43.28;;;14.32;;
42096;SDS011;27754;45.414;11.084;2022-12-18T07:17:05;32.13;;;13.90;;
42096;SDS011;27754;45.414;11.084;2022-12-18T07:19:32;26.65;;;13.05;;
42096;SDS011;27754;45.414;11.084;2022-12-18T07:22:00;40.53;;;16.05;;
42096;SDS011;27754;45.414;11.084;2022-12-18T07:24:27;23.40;;;12.80;;
42096;SDS011;27754;45.414;11.084;2022-12-18T07:26:54;24.98;;;16.02;;
42096;SDS011;27754;45.414;11.084;2022-12-18T07:29:21;22.17;;;11.73;;
42096;SDS011;27754;45.414;11.084;2022-12-18T07:31:48;19.23;;;13.00;;
42096;SDS011;27754;45.414;11.084;2022-12-18T07:34:15;17.63;;;11.70;;
42096;SDS011;27754;45.414;11.084;2022-12-18T07:36:42;21.92;;;12.18;;
42096;SDS011;27754;45.414;11.084;2022-12-18T07:39:10;17.63;;;12.27;;
42096;SDS011;27754;45.414;11.084;2022-12-18T07:41:38;21.75;;;12.98;;
42096;SDS011;27754;45.414;11.084;2022-12-18T07:44:14;18.60;;;12.77;;
42096;SDS011;27754;45.414;11.084;2022-12-18T07:46:41;21.33;;;15.20;;
42096;SDS011;27754;45.414;11.084;2022-12-18T07:49:08;21.08;;;13.77;;
42096;SDS011;27754;45.414;11.084;2022-12-18T07:51:35;21.10;;;14.13;;
42096;SDS011;27754;45.414;11.084;2022-12-18T07:54:02;20.63;;;15.27;;
42096;SDS011;27754;45.414;11.084;2022-12-18T07:56:29;25.17;;;14.45;;
42096;SDS011;27754;45.414;11.084;2022-12-18T07:58:57;20.67;;;14.10;;
42096;SDS011;27754;45.414;11.084;2022-12-18T08:01:30;20.05;;;14.35;;
42096;SDS011;27754;45.414;11.084;2022-12-18T08:03:57;21.13;;;14.45;;
42096;SDS011;27754;45.414;11.084;2022-12-18T08:06:25;20.80;;;14.32;;
42096;SDS011;27754;45.414;11.084;2022-12-18T08:08:52;18.42;;;12.73;;
42096;SDS011;27754;45.414;11.084;2022-12-18T08:11:20;20.95;;;13.50;;
42096;SDS011;27754;45.414;11.084;2022-12-18T08:13:48;18.63;;;13.48;;
42096;SDS011;27754;45.414;11.084;2022-12-18T08:16:15;17.80;;;13.00;;
42096;SDS011;27754;45.414;11.084;2022-12-18T08:18:43;22.35;;;13.27;;
42096;SDS011;27754;45.414;11.084;2022-12-18T08:21:17;17.27;;;12.82;;
42096;SDS011;27754;45.414;11.084;2022-12-18T08:23:49;16.25;;;12.35;;
42096;SDS011;27754;45.414;11.084;2022-12-18T08:26:17;19.77;;;13.45;;
42096;SDS011;27754;45.414;11.084;2022-12-18T08:28:46;22.63;;;13.10;;
42096;SDS011;27754;45.414;11.084;2022-12-18T08:31:13;18.33;;;13.52;;
42096;SDS011;27754;45.414;11.084;2022-12-18T08:33:40;22.08;;;13.27;;
42096;SDS011;27754;45.414;11.084;2022-12-18T08:36:09;19.55;;;13.63;;
42096;SDS011;27754;45.414;11.084;2022-12-18T08:38:36;19.35;;;13.23;;
42096;SDS011;27754;45.414;11.084;2022-12-18T08:41:05;16.48;;;11.60;;
42096;SDS011;27754;45.414;11.084;2022-12-18T08:43:33;17.90;;;11.75;;
42096;SDS011;27754;45.414;11.084;2022-12-18T08:48:47;16.90;;;11.57;;
42096;SDS011;27754;45.414;11.084;2022-12-18T08:51:16;16.77;;;11.65;;
42096;SDS011;27754;45.414;11.084;2022-12-18T08:53:44;15.73;;;11.70;;
42096;SDS011;27754;45.414;11.084;2022-12-18T08:56:11;16.52;;;12.27;;
42096;SDS011;27754;45.414;11.084;2022-12-18T08:58:39;18.60;;;13.55;;
42096;SDS011;27754;45.414;11.084;2022-12-18T09:01:08;16.25;;;11.88;;
42096;SDS011;27754;45.414;11.084;2022-12-18T09:03:36;24.95;;;15.15;;
42096;SDS011;27754;45.414;11.084;2022-12-18T09:06:05;22.80;;;17.48;;
42096;SDS011;27754;45.414;11.084;2022-12-18T09:08:32;17.52;;;14.75;;
42096;SDS011;27754;45.414;11.084;2022-12-18T09:11:00;20.08;;;14.20;;
42096;SDS011;27754;45.414;11.084;2022-12-18T09:13:27;19.65;;;15.02;;
42096;SDS011;27754;45.414;11.084;2022-12-18T09:15:54;19.10;;;15.43;;
42096;SDS011;27754;45.414;11.084;2022-12-18T09:18:22;17.40;;;13.48;;
42096;SDS011;27754;45.414;11.084;2022-12-18T09:20:50;16.02;;;11.55;;
42096;SDS011;27754;45.414;11.084;2022-12-18T09:23:19;32.70;;;27.88;;
42096;SDS011;27754;45.414;11.084;2022-12-18T09:25:47;19.42;;;16.92;;
42096;SDS011;27754;45.414;11.084;2022-12-18T09:28:14;21.23;;;15.55;;
42096;SDS011;27754;45.414;11.084;2022-12-18T09:30:44;20.15;;;16.08;;
42096;SDS011;27754;45.414;11.084;2022-12-18T09:33:13;18.95;;;14.80;;
42096;SDS011;27754;45.414;11.084;2022-12-18T09:35:41;14.98;;;11.27;;
42096;SDS011;27754;45.414;11.084;2022-12-18T09:38:13;20.00;;;15.20;;
42096;SDS011;27754;45.414;11.084;2022-12-18T09:40:44;18.95;;;12.80;;
42096;SDS011;27754;45.414;11.084;2022-12-18T09:43:18;19.05;;;13.27;;
42096;SDS011;27754;45.414;11.084;2022-12-18T09:45:50;18.38;;;12.40;;
42096;SDS011;27754;45.414;11.084;2022-12-18T09:48:22;16.00;;;12.45;;
42096;SDS011;27754;45.414;11.084;2022-12-18T09:51:15;16.95;;;12.48;;
42096;SDS011;27754;45.414;11.084;2022-12-18T09:53:44;16.02;;;11.45;;
42096;SDS011;27754;45.414;11.084;2022-12-18T09:56:17;16.15;;;11.20;;
42096;SDS011;27754;45.414;11.084;2022-12-18T09:58:58;16.20;;;12.05;;
42096;SDS011;27754;45.414;11.084;2022-12-18T10:01:27;15.57;;;11.88;;
42096;SDS011;27754;45.414;11.084;2022-12-18T10:04:09;17.17;;;10.60;;
42096;SDS011;27754;45.414;11.084;2022-12-18T10:06:46;14.23;;;11.23;;
42096;SDS011;27754;45.414;11.084;2022-12-18T10:12:21;14.90;;;10.60;;
42096;SDS011;27754;45.414;11.084;2022-12-18T10:21:03;14.35;;;10.70;;
42096;SDS011;27754;45.414;11.084;2022-12-18T10:23:43;13.50;;;10.40;;
42096;SDS011;27754;45.414;11.084;2022-12-18T10:26:17;14.32;;;10.88;;
42096;SDS011;27754;45.414;11.084;2022-12-18T10:28:44;15.35;;;11.45;;
42096;SDS011;27754;45.414;11.084;2022-12-18T10:31:14;15.05;;;12.05;;
42096;SDS011;27754;45.414;11.084;2022-12-18T10:33:50;14.32;;;11.65;;
42096;SDS011;27754;45.414;11.084;2022-12-18T10:36:17;14.60;;;12.57;;
42096;SDS011;27754;45.414;11.084;2022-12-18T10:38:44;17.95;;;11.85;;
42096;SDS011;27754;45.414;11.084;2022-12-18T10:43:48;20.67;;;13.77;;
42096;SDS011;27754;45.414;11.084;2022-12-18T10:46:48;14.60;;;11.35;;
42096;SDS011;27754;45.414;11.084;2022-12-18T10:49:21;15.90;;;11.63;;
42096;SDS011;27754;45.414;11.084;2022-12-18T10:51:50;13.10;;;11.05;;
42096;SDS011;27754;45.414;11.084;2022-12-18T10:54:29;22.58;;;17.42;;
42096;SDS011;27754;45.414;11.084;2022-12-18T10:57:15;16.42;;;12.90;;
42096;SDS011;27754;45.414;11.084;2022-12-18T11:02:50;16.70;;;11.70;;
42096;SDS011;27754;45.414;11.084;2022-12-18T11:05:24;15.30;;;12.27;;
42096;SDS011;27754;45.414;11.084;2022-12-18T11:07:57;16.52;;;12.35;;
42096;SDS011;27754;45.414;11.084;2022-12-18T11:10:35;18.42;;;13.77;;
42096;SDS011;27754;45.414;11.084;2022-12-18T11:13:12;15.10;;;12.68;;
42096;SDS011;27754;45.414;11.084;2022-12-18T11:15:43;18.27;;;13.75;;
42096;SDS011;27754;45.414;11.084;2022-12-18T11:18:33;16.25;;;13.45;;
42096;SDS011;27754;45.414;11.084;2022-12-18T11:23:34;25.33;;;17.98;;
42096;SDS011;27754;45.414;11.084;2022-12-18T11:26:03;20.15;;;16.77;;
42096;SDS011;27754;45.414;11.084;2022-12-18T11:31:31;26.20;;;18.23;;
42096;SDS011;27754;45.414;11.084;2022-12-18T11:34:07;27.70;;;19.35;;
42096;SDS011;27754;45.414;11.084;2022-12-18T11:36:55;25.23;;;20.50;;
42096;SDS011;27754;45.414;11.084;2022-12-18T11:39:40;20.15;;;16.35;;
42096;SDS011;27754;45.414;11.084;2022-12-18T11:42:20;19.65;;;14.10;;
42096;SDS011;27754;45.414;11.084;2022-12-18T11:47:42;17.67;;;12.30;;
42096;SDS011;27754;45.414;11.084;2022-12-18T11:50:19;18.02;;;13.63;;
42096;SDS011;27754;45.414;11.084;2022-12-18T11:52:51;16.27;;;12.90;;
42096;SDS011;27754;45.414;11.084;2022-12-18T11:55:31;15.18;;;11.40;;
42096;SDS011;27754;45.414;11.084;2022-12-18T11:58:18;15.18;;;11.15;;
42096;SDS011;27754;45.414;11.084;2022-12-18T12:20:46;15.27;;;11.15;;
42096;SDS011;27754;45.414;11.084;2022-12-18T12:26:07;12.88;;;10.40;;
42096;SDS011;27754;45.414;11.084;2022-12-18T12:34:18;17.55;;;12.77;;
42096;SDS011;27754;45.414;11.084;2022-12-18T12:36:57;23.55;;;15.48;;
42096;SDS011;27754;45.414;11.084;2022-12-18T12:39:27;15.68;;;11.73;;
42096;SDS011;27754;45.414;11.084;2022-12-18T12:42:05;13.35;;;11.10;;
42096;SDS011;27754;45.414;11.084;2022-12-18T12:44:55;16.05;;;12.60;;
42096;SDS011;27754;45.414;11.084;2022-12-18T12:47:29;14.88;;;11.68;;
42096;SDS011;27754;45.414;11.084;2022-12-18T12:50:00;15.38;;;11.30;;
42096;SDS011;27754;45.414;11.084;2022-12-18T12:52:34;15.90;;;11.32;;
42096;SDS011;27754;45.414;11.084;2022-12-18T12:55:07;13.35;;;11.13;;
42096;SDS011;27754;45.414;11.084;2022-12-18T13:00:44;14.43;;;11.68;;
42096;SDS011;27754;45.414;11.084;2022-12-18T13:09:10;15.55;;;12.40;;
42096;SDS011;27754;45.414;11.084;2022-12-18T13:11:43;16.77;;;12.88;;
42096;SDS011;27754;45.414;11.084;2022-12-18T13:14:38;16.45;;;13.23;;
42096;SDS011;27754;45.414;11.084;2022-12-18T13:19:52;19.00;;;12.70;;
42096;SDS011;27754;45.414;11.084;2022-12-18T13:22:40;17.45;;;12.25;;
42096;SDS011;27754;45.414;11.084;2022-12-18T13:38:23;16.48;;;12.73;;
42096;SDS011;27754;45.414;11.084;2022-12-18T13:41:10;17.60;;;11.40;;
42096;SDS011;27754;45.414;11.084;2022-12-18T13:43:53;14.35;;;11.23;;
42096;SDS011;27754;45.414;11.084;2022-12-18T13:46:44;15.70;;;10.70;;
42096;SDS011;27754;45.414;11.084;2022-12-18T13:51:44;14.07;;;11.30;;
42096;SDS011;27754;45.414;11.084;2022-12-18T13:57:01;15.60;;;12.15;;
42096;SDS011;27754;45.414;11.084;2022-12-18T13:59:35;16.90;;;11.52;;
42096;SDS011;27754;45.414;11.084;2022-12-18T14:02:14;16.83;;;12.15;;
42096;SDS011;27754;45.414;11.084;2022-12-18T14:04:46;15.38;;;11.52;;
42096;SDS011;27754;45.414;11.084;2022-12-18T14:07:15;16.98;;;11.30;;
42096;SDS011;27754;45.414;11.084;2022-12-18T14:09:47;13.43;;;10.13;;
42096;SDS011;27754;45.414;11.084;2022-12-18T14:12:21;15.55;;;11.13;;
42096;SDS011;27754;45.414;11.084;2022-12-18T14:17:53;13.43;;;11.10;;
42096;SDS011;27754;45.414;11.084;2022-12-18T14:20:26;14.80;;;11.60;;
42096;SDS011;27754;45.414;11.084;2022-12-18T14:22:55;13.05;;;11.00;;
42096;SDS011;27754;45.414;11.084;2022-12-18T14:25:25;14.27;;;11.30;;
42096;SDS011;27754;45.414;11.084;2022-12-18T14:28:08;15.00;;;10.98;;
42096;SDS011;27754;45.414;11.084;2022-12-18T14:30:41;14.50;;;10.43;;
42096;SDS011;27754;45.414;11.084;2022-12-18T14:33:10;14.70;;;10.85;;
42096;SDS011;27754;45.414;11.084;2022-12-18T14:35:59;12.68;;;10.15;;
42096;SDS011;27754;45.414;11.084;2022-12-18T14:43:31;13.57;;;10.93;;
42096;SDS011;27754;45.414;11.084;2022-12-18T14:46:01;15.15;;;11.90;;
42096;SDS011;27754;45.414;11.084;2022-12-18T14:48:35;15.43;;;11.80;;
42096;SDS011;27754;45.414;11.084;2022-12-18T14:53:56;18.42;;;14.05;;
42096;SDS011;27754;45.414;11.084;2022-12-18T14:56:35;26.40;;;19.02;;
42096;SDS011;27754;45.414;11.084;2022-12-18T14:59:16;20.92;;;16.40;;
42096;SDS011;27754;45.414;11.084;2022-12-18T15:07:04;18.60;;;14.15;;
42096;SDS011;27754;45.414;11.084;2022-12-18T15:12:34;17.27;;;13.20;;
42096;SDS011;27754;45.414;11.084;2022-12-18T15:20:44;17.23;;;12.20;;
42096;SDS011;27754;45.414;11.084;2022-12-18T15:25:55;17.05;;;12.68;;
42096;SDS011;27754;45.414;11.084;2022-12-18T15:28:36;16.20;;;11.95;;
42096;SDS011;27754;45.414;11.084;2022-12-18T15:33:45;17.70;;;13.23;;
42096;SDS011;27754;45.414;11.084;2022-12-18T15:36:29;16.83;;;13.32;;
42096;SDS011;27754;45.414;11.084;2022-12-18T15:38:56;17.88;;;13.32;;
42096;SDS011;27754;45.414;11.084;2022-12-18T15:41:31;18.88;;;13.38;;
42096;SDS011;27754;45.414;11.084;2022-12-18T15:44:01;18.02;;;13.50;;
42096;SDS011;27754;45.414;11.084;2022-12-18T15:46:29;15.77;;;11.70;;
42096;SDS011;27754;45.414;11.084;2022-12-18T15:48:57;16.45;;;12.65;;
42096;SDS011;27754;45.414;11.084;2022-12-18T15:51:29;25.48;;;13.23;;
42096;SDS011;27754;45.414;11.084;2022-12-18T15:54:05;20.15;;;14.23;;
42096;SDS011;27754;45.414;11.084;2022-12-18T15:56:35;20.52;;;15.65;;
42096;SDS011;27754;45.414;11.084;2022-12-18T15:59:23;19.08;;;13.40;;
42096;SDS011;27754;45.414;11.084;2022-12-18T16:01:50;18.38;;;13.60;;
42096;SDS011;27754;45.414;11.084;2022-12-18T16:04:21;21.02;;;15.27;;
42096;SDS011;27754;45.414;11.084;2022-12-18T16:06:49;19.63;;;13.82;;
42096;SDS011;27754;45.414;11.084;2022-12-18T16:09:37;20.35;;;13.85;;
42096;SDS011;27754;45.414;11.084;2022-12-18T16:12:06;24.33;;;15.73;;
42096;SDS011;27754;45.414;11.084;2022-12-18T16:14:40;28.63;;;16.70;;
42096;SDS011;27754;45.414;11.084;2022-12-18T16:17:09;20.92;;;15.38;;
42096;SDS011;27754;45.414;11.084;2022-12-18T16:19:37;22.83;;;15.07;;
42096;SDS011;27754;45.414;11.084;2022-12-18T16:22:14;24.67;;;14.80;;
42096;SDS011;27754;45.414;11.084;2022-12-18T16:24:50;24.08;;;15.65;;
42096;SDS011;27754;45.414;11.084;2022-12-18T16:27:18;30.67;;;18.17;;
42096;SDS011;27754;45.414;11.084;2022-12-18T16:29:45;29.05;;;18.38;;
42096;SDS011;27754;45.414;11.084;2022-12-18T16:32:14;30.40;;;18.40;;
42096;SDS011;27754;45.414;11.084;2022-12-18T16:34:43;25.77;;;18.20;;
42096;SDS011;27754;45.414;11.084;2022-12-18T16:37:11;23.52;;;16.65;;
42096;SDS011;27754;45.414;11.084;2022-12-18T16:39:39;27.55;;;17.98;;
42096;SDS011;27754;45.414;11.084;2022-12-18T16:42:15;28.08;;;18.88;;
42096;SDS011;27754;45.414;11.084;2022-12-18T16:44:46;31.60;;;20.95;;
42096;SDS011;27754;45.414;11.084;2022-12-18T16:47:14;34.13;;;20.15;;
42096;SDS011;27754;45.414;11.084;2022-12-18T16:49:41;35.05;;;22.05;;
42096;SDS011;27754;45.414;11.084;2022-12-18T16:52:11;28.92;;;19.75;;
42096;SDS011;27754;45.414;11.084;2022-12-18T16:54:39;30.50;;;21.05;;
42096;SDS011;27754;45.414;11.084;2022-12-18T16:57:06;30.25;;;20.63;;
42096;SDS011;27754;45.414;11.084;2022-12-18T16:59:35;33.00;;;21.38;;
42096;SDS011;27754;45.414;11.084;2022-12-18T17:02:02;34.50;;;23.50;;
42096;SDS011;27754;45.414;11.084;2022-12-18T17:04:29;32.53;;;22.15;;